New York, NY

12:34 PM EST on December 19, 2014 (GMT -0500)
Sutton East | Change Station
CLOSE
Current Station
Personal Weather Station
Location: New York, NY
Elevation: 79 ft
Nearby Weather Stations

Elev 79 ft 40.76 °N, 73.97 °W | Updated 8 minutes ago

Mostly Cloudy
Mostly Cloudy
39.9 °F
Feels Like 40 °F
N
2.2
Wind Variable Wind from West

Today
High -- | Low -- °F
--% Chance of Precip.
Yesterday
High -- | Low -- °F
Precip. -- in
7:15 AM 4:30 PM
Waning Crescent, 7% visible
Pressure 30.04 in
Visibility 10.0 miles
Clouds Mostly Cloudy 3700 ft
Windchill 40 °F
Dew Point Not available.
Humidity Not available.
Rainfall 0.00 in
Snow Depth Not available.
UV 1 out of 12
Pollen .10 out of 12
Air Quality Not available.
Flu Activity Not available.
METAR KNYC 191651Z AUTO 34008G15KT 280V040 10SM BKN037 02/M07 A3006 RMK AO2 SLP171 T00221072 $

More Conditions Fewer Conditions

Pressure 30.04 in
Visibility 10.0 miles
Clouds Mostly Cloudy 3700 ft
Windchill 40 °F
Dew Point Not available.
Humidity Not available.
Rainfall 0.00 in
Snow Depth Not available.
UV 1 out of 12
Pollen .10 out of 12
Air Quality Not available.
Flu Activity Not available.
METAR KNYC 191651Z AUTO 34008G15KT 280V040 10SM BKN037 02/M07 A3006 RMK AO2 SLP171 T00221072 $

More Conditions Fewer Conditions

Nowcast | as of 11:45 am EST on December 19, 2014

A 1 to 2 hour period of clearing will move across the region early this afternoon. The clearing will reach the New York City are around 2 PM. Until then...skies will remain mostly cloudy with temperatures in the upper 30s. Clouds will return late this afternoon.

×

10-Day Weather Forecast

Almanac

Astronomy

Dec. 19, 2014 Rise Set
Actual Time
Civil Twilight
Nautical Twilight
Astronomical Twilight
Moon
Length of Visible Light
Length of Day
Tomorrow will be .
, % of the Moon is Illuminated

Today's Extremes

State Highs State Lows

Community

WunderPhotos

Upload Photos

1,779,008 photos uploaded!

WunderBlogs® & News

Nearby

Air Quality

  Air Quality AQ Index Pollutant
Not available.

Snow Depth

Station Depth Elevation

Earthquake Activity

City Distance Mag. Time & Date
Minimum magnitude displayed is 2.5.

Coastal Water Temperatures

Place Temperature

Nearby Weather Stations